createdAt,value
2022-10-21T00:01:32.342Z,60.70
2022-10-21T00:04:03.039Z,60.83
2022-10-21T00:06:33.195Z,60.76
2022-10-21T00:09:03.644Z,60.93
2022-10-21T00:11:33.578Z,60.76
2022-10-21T00:14:02.242Z,60.94
2022-10-21T00:16:30.960Z,61.10
2022-10-21T00:18:59.433Z,60.87
2022-10-21T00:21:28.110Z,60.89
2022-10-21T00:23:58.688Z,60.93
2022-10-21T00:26:28.445Z,61.33
2022-10-21T00:28:58.753Z,61.34
2022-10-21T00:31:28.258Z,61.29
2022-10-21T00:33:57.139Z,61.27
2022-10-21T00:36:25.735Z,61.45
2022-10-21T00:38:54.450Z,61.35
2022-10-21T00:41:25.424Z,61.44
2022-10-21T00:44:06.598Z,61.39
2022-10-21T00:46:36.627Z,61.50
2022-10-21T00:49:07.257Z,61.51
2022-10-21T00:51:37.014Z,61.61
2022-10-21T00:54:06.756Z,61.74
2022-10-21T00:56:43.004Z,61.77
2022-10-21T00:59:12.358Z,61.70
2022-10-21T01:01:43.166Z,61.77
2022-10-21T01:04:11.938Z,61.80
2022-10-21T01:06:41.591Z,61.90
2022-10-21T01:09:12.107Z,62.06
2022-10-21T01:11:43.276Z,62.10
2022-10-21T01:14:21.473Z,62.26
2022-10-21T01:17:26.469Z,62.48
2022-10-21T01:20:17.661Z,62.54
2022-10-21T01:22:53.430Z,62.46
2022-10-21T01:25:43.100Z,62.41
2022-10-21T01:28:30.296Z,62.39
2022-10-21T01:31:02.361Z,62.55
2022-10-21T01:33:39.827Z,62.76
2022-10-21T01:36:13.938Z,62.62
2022-10-21T01:38:47.277Z,62.58
2022-10-21T01:41:25.692Z,62.80
2022-10-21T01:43:58.704Z,62.74
2022-10-21T01:46:29.238Z,62.78
2022-10-21T01:49:18.724Z,62.89
2022-10-21T01:51:48.130Z,62.77
2022-10-21T01:54:21.928Z,62.86
2022-10-21T01:57:15.079Z,63.24
2022-10-21T01:59:45.343Z,62.97
2022-10-21T02:02:16.323Z,63.09
2022-10-21T02:04:46.806Z,63.16
2022-10-21T02:07:15.403Z,63.34
2022-10-21T02:09:44.022Z,63.34
2022-10-21T02:12:15.248Z,63.24
2022-10-21T02:14:48.780Z,63.10
2022-10-21T02:17:21.138Z,63.18
2022-10-21T02:19:49.699Z,63.22
2022-10-21T02:22:21.067Z,63.11
2022-10-21T02:25:02.325Z,63.11
2022-10-21T02:27:30.999Z,63.23
2022-10-21T02:30:01.242Z,63.02
2022-10-21T02:32:38.887Z,63.11
2022-10-21T02:35:08.430Z,63.05
2022-10-21T02:37:51.679Z,62.91
2022-10-21T02:40:33.863Z,63.23
2022-10-21T02:43:21.565Z,63.13
2022-10-21T02:45:54.834Z,63.17
2022-10-21T02:48:26.370Z,63.20
2022-10-21T02:50:55.029Z,63.24
2022-10-21T02:53:24.829Z,63.48
2022-10-21T02:56:22.357Z,63.77
2022-10-21T02:58:53.181Z,63.83
2022-10-21T03:01:23.215Z,63.82
2022-10-21T03:03:52.576Z,63.78
2022-10-21T03:06:22.826Z,63.85
2022-10-21T03:08:51.800Z,63.99
2022-10-21T03:11:20.963Z,63.95
2022-10-21T03:13:51.116Z,64.19
2022-10-21T03:16:20.654Z,63.71
2022-10-21T03:18:51.144Z,64.11
2022-10-21T03:21:19.869Z,63.83
2022-10-21T03:23:49.693Z,64.00
2022-10-21T03:26:18.235Z,63.79
2022-10-21T03:28:49.452Z,63.77
2022-10-21T03:31:18.862Z,63.83
2022-10-21T03:33:47.515Z,63.98
2022-10-21T03:36:18.013Z,64.04
2022-10-21T03:38:47.188Z,64.21
2022-10-21T03:41:17.469Z,64.18
2022-10-21T03:43:47.476Z,64.43
2022-10-21T03:46:17.536Z,64.48
2022-10-21T03:48:47.255Z,64.64
2022-10-21T03:51:16.136Z,64.58
2022-10-21T03:53:45.195Z,64.61
2022-10-21T03:56:41.085Z,64.89
2022-10-21T03:59:09.719Z,64.96
2022-10-21T04:01:39.770Z,65.30
2022-10-21T04:04:08.481Z,65.55
2022-10-21T04:06:36.935Z,65.41
2022-10-21T04:09:08.198Z,65.20
2022-10-21T04:11:37.025Z,65.72
2022-10-21T04:14:10.258Z,65.49
2022-10-21T04:16:43.927Z,65.51
2022-10-21T04:19:20.218Z,65.31
2022-10-21T04:21:58.000Z,65.32
2022-10-21T04:24:33.465Z,65.39
2022-10-21T04:27:27.466Z,65.44
2022-10-21T04:30:02.878Z,65.68
2022-10-21T04:32:38.728Z,65.95
2022-10-21T04:35:20.463Z,66.15
2022-10-21T04:37:52.695Z,65.97
2022-10-21T04:40:21.648Z,65.99
2022-10-21T04:42:50.811Z,66.26
2022-10-21T04:48:35.807Z,65.91
2022-10-21T04:51:05.756Z,65.91
2022-10-21T04:53:36.889Z,65.88
2022-10-21T04:56:33.323Z,66.01
2022-10-21T04:59:03.534Z,65.91
2022-10-21T05:01:33.005Z,66.12
2022-10-21T05:04:18.743Z,66.04
2022-10-21T05:06:49.657Z,65.99
2022-10-21T05:09:24.946Z,65.95
2022-10-21T05:11:55.406Z,65.95
2022-10-21T05:14:24.023Z,66.21
2022-10-21T05:16:55.934Z,65.94
2022-10-21T05:19:28.971Z,65.86
2022-10-21T05:22:01.418Z,65.80
2022-10-21T05:24:31.556Z,66.00
2022-10-21T05:27:00.977Z,65.95
2022-10-21T05:29:29.562Z,66.02
2022-10-21T05:31:58.205Z,66.34
2022-10-21T05:34:26.909Z,66.25
2022-10-21T05:36:56.065Z,66.02
2022-10-21T05:39:27.833Z,66.11
2022-10-21T05:41:57.539Z,66.51
2022-10-21T05:44:26.370Z,66.18
2022-10-21T05:47:02.001Z,66.10
2022-10-21T05:49:33.050Z,66.11
2022-10-21T05:52:03.120Z,66.37
2022-10-21T05:54:32.660Z,66.32
2022-10-21T05:57:29.371Z,66.32
2022-10-21T06:22:37.112Z,66.26
2022-10-21T06:25:12.018Z,66.26
2022-10-21T06:46:31.896Z,66.28
2022-10-21T06:52:16.118Z,66.28
2022-10-21T06:58:06.273Z,66.34
2022-10-21T07:00:48.032Z,66.10
2022-10-21T07:03:22.210Z,66.11
2022-10-21T07:05:59.863Z,66.21
2022-10-21T07:12:33.316Z,66.25
2022-10-21T07:15:06.001Z,66.06
2022-10-21T07:18:01.336Z,66.22
2022-10-21T07:27:08.580Z,66.28
2022-10-21T07:29:44.171Z,66.58
2022-10-21T07:32:33.211Z,66.42
2022-10-21T07:35:09.572Z,66.48
2022-10-21T07:37:53.224Z,66.23
2022-10-21T07:40:50.070Z,66.27
2022-10-21T07:46:51.797Z,66.35
2022-10-21T07:49:27.873Z,66.37
2022-10-21T07:52:03.553Z,66.19
2022-10-21T08:10:54.914Z,65.54
2022-10-21T08:13:25.282Z,65.41
2022-10-21T08:15:57.756Z,65.68
2022-10-21T08:18:30.417Z,65.71
2022-10-21T08:21:04.087Z,65.65
2022-10-21T08:23:36.759Z,65.73
2022-10-21T08:26:12.551Z,65.64
2022-10-21T08:28:44.362Z,65.63
2022-10-21T08:31:20.602Z,65.65
2022-10-21T08:33:51.054Z,65.21
2022-10-21T08:36:25.732Z,65.04
2022-10-21T08:38:55.759Z,65.13
2022-10-21T08:41:31.475Z,65.32
2022-10-21T08:44:11.417Z,65.24
2022-10-21T08:46:51.995Z,65.28
2022-10-21T08:49:28.599Z,65.11
2022-10-21T08:52:06.542Z,64.73
2022-10-21T08:54:59.969Z,64.65
2022-10-21T08:57:35.643Z,64.48
2022-10-21T09:00:56.584Z,64.12
2022-10-21T09:03:44.452Z,64.00
2022-10-21T09:07:01.122Z,62.89
2022-10-21T09:09:53.480Z,62.08
2022-10-21T09:13:03.576Z,62.70
2022-10-21T09:15:53.141Z,62.47
2022-10-21T09:18:58.636Z,62.21
2022-10-21T09:21:48.855Z,60.55
2022-10-21T09:24:57.150Z,60.39
2022-10-21T09:27:32.296Z,60.52
2022-10-21T09:30:21.577Z,61.09
2022-10-21T09:32:56.737Z,61.17
2022-10-21T09:35:43.279Z,61.81
2022-10-21T09:38:16.227Z,61.28
2022-10-21T09:40:48.742Z,60.63
2022-10-21T09:43:26.718Z,60.85
2022-10-21T09:45:57.005Z,60.90
2022-10-21T09:48:55.040Z,61.54
2022-10-21T09:51:33.044Z,62.19
2022-10-21T09:54:14.007Z,62.25
2022-10-21T09:56:53.054Z,62.92
2022-10-21T09:59:32.949Z,62.59
2022-10-21T10:02:19.469Z,63.02
2022-10-21T10:04:54.226Z,62.96
2022-10-21T10:07:32.075Z,63.03
2022-10-21T10:10:04.260Z,62.93
2022-10-21T10:12:33.597Z,63.28
2022-10-21T10:15:29.373Z,63.24
2022-10-21T10:18:01.546Z,63.43
2022-10-21T10:20:31.190Z,63.55
2022-10-21T10:23:01.663Z,63.55
2022-10-21T10:25:35.986Z,63.43
2022-10-21T10:28:12.356Z,63.42
2022-10-21T10:30:41.608Z,63.66
2022-10-21T10:33:13.877Z,63.43
2022-10-21T10:35:56.558Z,63.27
2022-10-21T10:38:33.079Z,63.27
2022-10-21T10:41:11.989Z,63.27
2022-10-21T10:43:51.800Z,63.38
2022-10-21T10:46:30.002Z,63.35
2022-10-21T10:49:07.196Z,63.16
2022-10-21T10:51:39.035Z,63.22
2022-10-21T10:54:07.797Z,63.06
2022-10-21T10:56:54.120Z,63.13
2022-10-21T10:59:23.499Z,63.30
2022-10-21T11:02:23.049Z,63.45
2022-10-21T11:05:23.987Z,63.34
2022-10-21T11:12:38.727Z,63.34
2022-10-21T11:15:14.251Z,63.24
2022-10-21T11:18:00.469Z,63.24
2022-10-21T11:20:48.664Z,63.23
2022-10-21T11:23:35.676Z,63.30
2022-10-21T11:26:21.439Z,63.14
2022-10-21T11:29:06.657Z,63.10
2022-10-21T11:32:10.217Z,63.18
2022-10-21T11:35:12.710Z,63.26
2022-10-21T11:37:56.336Z,63.28
2022-10-21T11:40:39.862Z,63.28
2022-10-21T11:43:31.163Z,63.24
2022-10-21T11:46:24.167Z,63.26
2022-10-21T11:48:59.764Z,63.22
2022-10-21T11:51:54.221Z,63.53
2022-10-21T11:54:41.556Z,63.54
2022-10-21T11:57:48.938Z,63.51
2022-10-21T12:00:25.734Z,63.58
2022-10-21T12:03:15.298Z,63.52
2022-10-21T12:06:04.182Z,63.53
2022-10-21T12:08:50.788Z,63.58
2022-10-21T12:11:26.883Z,63.69
2022-10-21T12:14:02.239Z,63.53
2022-10-21T12:16:35.275Z,63.61
2022-10-21T12:19:08.024Z,63.68
2022-10-21T12:21:40.451Z,63.77
2022-10-21T12:24:27.856Z,63.64
2022-10-21T12:26:58.100Z,63.83
2022-10-21T12:29:55.070Z,63.77
2022-10-21T12:32:40.076Z,63.92
2022-10-21T12:35:36.131Z,63.89
2022-10-21T12:38:21.073Z,63.89
2022-10-21T12:40:52.337Z,64.12
2022-10-21T12:43:29.191Z,64.17
2022-10-21T12:46:08.601Z,64.22
2022-10-21T12:48:39.832Z,64.11
2022-10-21T12:51:29.645Z,64.06
2022-10-21T12:54:04.158Z,64.24
2022-10-21T12:56:32.772Z,64.25
2022-10-21T12:59:07.456Z,64.35
2022-10-21T13:01:41.234Z,64.20
2022-10-21T13:04:34.932Z,64.41
2022-10-21T13:07:26.649Z,64.39
2022-10-21T13:09:55.537Z,64.37
2022-10-21T13:12:28.409Z,64.42
2022-10-21T13:15:22.920Z,64.65
2022-10-21T13:17:54.795Z,64.52
2022-10-21T13:20:26.097Z,64.37
2022-10-21T13:23:15.665Z,64.68
2022-10-21T13:25:47.433Z,64.67
2022-10-21T13:28:16.090Z,64.71
2022-10-21T13:30:51.846Z,64.62
2022-10-21T13:33:27.890Z,64.51
2022-10-21T13:36:10.137Z,64.58
2022-10-21T13:38:53.566Z,64.73
2022-10-21T13:41:46.723Z,64.89
2022-10-21T13:44:33.233Z,64.79
2022-10-21T13:47:31.524Z,64.78
2022-10-21T13:50:19.621Z,64.98
2022-10-21T13:52:54.963Z,64.76
2022-10-21T13:55:27.279Z,64.99
2022-10-21T13:57:57.386Z,64.99
2022-10-21T14:00:34.267Z,65.07
2022-10-21T14:03:07.316Z,65.11
2022-10-21T14:05:48.841Z,65.21
2022-10-21T14:08:23.205Z,65.25
2022-10-21T14:10:53.958Z,65.27
2022-10-21T14:13:30.777Z,65.23
2022-10-21T14:16:00.732Z,65.27
2022-10-21T14:18:37.504Z,65.55
2022-10-21T14:21:18.101Z,65.31
2022-10-21T14:23:52.756Z,65.36
2022-10-21T14:26:31.017Z,65.38
2022-10-21T14:29:03.341Z,65.38
2022-10-21T14:31:32.745Z,65.43
2022-10-21T14:34:02.176Z,65.56
2022-10-21T14:36:32.462Z,65.47
2022-10-21T14:39:22.169Z,65.37
2022-10-21T14:41:57.789Z,65.39
2022-10-21T14:44:31.348Z,65.50
2022-10-21T14:47:06.113Z,65.56
2022-10-21T14:49:50.743Z,65.80
2022-10-21T14:52:27.226Z,65.57
2022-10-21T14:55:02.653Z,65.50
2022-10-21T14:57:32.565Z,65.52
2022-10-21T15:00:03.540Z,65.80
2022-10-21T15:02:38.545Z,65.83
2022-10-21T15:05:48.988Z,65.60
2022-10-21T15:08:23.613Z,65.73
2022-10-21T15:11:06.433Z,66.03
2022-10-21T15:14:21.039Z,65.98
2022-10-21T15:16:56.137Z,65.97
2022-10-21T15:19:30.404Z,65.89
2022-10-21T15:22:12.035Z,66.16
2022-10-21T15:24:48.051Z,66.05
2022-10-21T15:27:44.000Z,66.28
2022-10-21T15:30:21.799Z,66.29
2022-10-21T15:32:52.150Z,66.26
2022-10-21T15:35:26.764Z,66.17
2022-10-21T15:37:57.319Z,66.41
2022-10-21T15:40:36.004Z,66.29
2022-10-21T15:43:11.672Z,66.59
2022-10-21T15:45:41.887Z,66.49
2022-10-21T15:48:13.939Z,66.41
2022-10-21T15:50:48.167Z,66.40
2022-10-21T15:53:21.274Z,66.40
2022-10-21T15:55:57.468Z,66.49
2022-10-21T15:58:29.600Z,66.51
2022-10-21T16:05:45.144Z,66.77
2022-10-21T16:08:24.494Z,66.73
2022-10-21T16:10:53.571Z,66.64
2022-10-21T16:13:25.535Z,66.65
2022-10-21T16:15:59.117Z,66.74
2022-10-21T16:18:30.828Z,66.81
2022-10-21T16:21:05.944Z,66.73
2022-10-21T16:23:37.017Z,66.95
2022-10-21T16:26:27.568Z,66.79
2022-10-21T16:29:00.047Z,67.05
2022-10-21T16:31:31.386Z,66.98
2022-10-21T16:34:01.956Z,66.84
2022-10-21T16:36:40.579Z,66.86
2022-10-21T16:39:24.989Z,66.92
2022-10-21T16:41:56.662Z,67.05
2022-10-21T16:44:32.667Z,67.03
2022-10-21T16:47:15.305Z,66.91
2022-10-21T16:49:53.501Z,67.00
2022-10-21T16:52:27.134Z,66.92
2022-10-21T16:55:02.363Z,66.96
2022-10-21T16:57:32.259Z,66.99
2022-10-21T17:00:29.135Z,67.08
2022-10-21T17:03:05.353Z,67.10
2022-10-21T17:05:42.977Z,67.16
2022-10-21T17:08:16.702Z,66.97
2022-10-21T17:10:52.766Z,67.08
2022-10-21T17:13:25.397Z,67.09
2022-10-21T17:15:58.578Z,67.01
2022-10-21T17:18:29.223Z,67.19
2022-10-21T17:21:01.149Z,67.14
2022-10-21T17:23:32.298Z,67.10
2022-10-21T17:26:03.089Z,67.15
2022-10-21T17:28:34.306Z,67.12
2022-10-21T17:31:08.093Z,67.07
2022-10-21T17:33:39.756Z,67.03
2022-10-21T17:36:11.506Z,67.50
2022-10-21T17:38:42.605Z,67.28
2022-10-21T17:41:16.362Z,67.38
2022-10-21T17:43:49.285Z,67.29
2022-10-21T17:46:26.429Z,67.47
2022-10-21T17:48:58.392Z,67.43
2022-10-21T17:51:28.053Z,67.49
2022-10-21T17:53:58.509Z,67.54
2022-10-21T17:56:32.894Z,67.30
2022-10-21T17:59:05.012Z,67.66
2022-10-21T18:06:10.853Z,67.61
2022-10-21T18:08:43.856Z,67.70
2022-10-21T18:11:18.910Z,67.79
2022-10-21T18:13:53.594Z,67.94
2022-10-21T18:16:27.042Z,68.15
2022-10-21T18:19:02.635Z,68.12
2022-10-21T18:21:33.740Z,68.02
2022-10-21T18:24:09.989Z,67.88
2022-10-21T18:26:47.266Z,67.99
2022-10-21T18:29:19.952Z,68.06
2022-10-21T18:31:53.829Z,68.18
2022-10-21T18:34:24.495Z,68.17
2022-10-21T18:36:56.740Z,68.33
2022-10-21T18:39:30.279Z,68.37
2022-10-21T18:42:04.796Z,68.57
2022-10-21T18:44:36.186Z,68.05
2022-10-21T18:47:10.874Z,68.24
2022-10-21T18:49:41.701Z,68.36
2022-10-21T18:52:12.942Z,68.58
2022-10-21T18:54:45.058Z,68.40
2022-10-21T18:57:18.680Z,68.42
2022-10-21T18:59:53.409Z,68.67
2022-10-21T19:02:25.521Z,68.48
2022-10-21T19:15:03.592Z,68.57
2022-10-21T19:17:36.395Z,68.62
2022-10-21T19:20:09.529Z,68.59
2022-10-21T19:22:41.943Z,68.86
2022-10-21T19:25:12.491Z,68.55
2022-10-21T19:27:45.762Z,68.91
2022-10-21T19:30:15.239Z,68.75
2022-10-21T19:32:45.236Z,68.85
2022-10-21T19:35:17.148Z,68.85
2022-10-21T19:37:49.111Z,68.84
2022-10-21T19:40:19.396Z,68.84
2022-10-21T19:42:50.112Z,68.88
2022-10-21T19:45:20.149Z,68.71
2022-10-21T19:47:52.343Z,68.86
2022-10-21T19:50:22.948Z,68.93
2022-10-21T19:52:53.742Z,68.83
2022-10-21T19:55:30.213Z,68.78
2022-10-21T19:58:11.949Z,68.90
2022-10-21T20:05:25.676Z,69.14
2022-10-21T20:08:30.801Z,68.93
2022-10-21T20:11:08.040Z,69.11
2022-10-21T20:13:44.579Z,69.14
2022-10-21T20:16:29.393Z,69.15
2022-10-21T20:19:02.503Z,69.43
2022-10-21T20:21:34.359Z,69.33
2022-10-21T20:24:04.158Z,69.34
2022-10-21T20:26:35.700Z,69.19
2022-10-21T20:29:05.459Z,69.34
2022-10-21T20:31:36.326Z,69.56
2022-10-21T20:34:06.996Z,69.59
2022-10-21T20:36:40.618Z,69.35
2022-10-21T20:39:11.349Z,69.60
2022-10-21T20:41:42.178Z,69.51
2022-10-21T20:44:16.483Z,69.41
2022-10-21T20:46:47.321Z,69.55
2022-10-21T20:49:17.655Z,69.65
2022-10-21T20:51:47.066Z,69.54
2022-10-21T20:54:19.396Z,69.72
2022-10-21T20:56:50.047Z,69.59
2022-10-21T20:59:20.325Z,69.43
2022-10-21T21:06:21.766Z,69.62
2022-10-21T21:09:08.610Z,69.82
2022-10-21T21:11:42.779Z,69.83
2022-10-21T21:14:11.615Z,69.70
2022-10-21T21:16:42.269Z,69.80
2022-10-21T21:19:14.112Z,69.97
2022-10-21T21:21:43.788Z,69.80
2022-10-21T21:24:12.927Z,69.64
2022-10-21T21:26:43.228Z,69.80
2022-10-21T21:29:15.555Z,70.02
2022-10-21T21:31:46.307Z,69.95
2022-10-21T21:34:15.434Z,70.07
2022-10-21T21:36:46.132Z,69.75
2022-10-21T21:39:17.142Z,69.96
2022-10-21T21:41:49.432Z,70.00
2022-10-21T21:44:18.438Z,70.16
2022-10-21T21:46:48.743Z,70.08
2022-10-21T21:49:17.601Z,69.99
2022-10-21T21:51:47.037Z,69.92
2022-10-21T21:54:17.230Z,70.07
2022-10-21T21:56:48.454Z,70.07
2022-10-21T21:59:17.187Z,70.04
2022-10-21T22:08:58.756Z,70.28
2022-10-21T22:11:30.705Z,70.19
2022-10-21T22:14:00.222Z,70.11
2022-10-21T22:16:32.296Z,70.31
2022-10-21T22:19:02.387Z,70.48
2022-10-21T22:21:31.745Z,70.27
2022-10-21T22:24:02.628Z,70.43
2022-10-21T22:26:31.559Z,70.15
2022-10-21T22:29:00.276Z,70.13
2022-10-21T22:31:31.065Z,70.40
2022-10-21T22:34:02.781Z,70.19
2022-10-21T22:36:34.612Z,70.23
2022-10-21T22:39:05.030Z,70.69
2022-10-21T22:41:33.677Z,70.44
2022-10-21T22:44:02.340Z,70.54
2022-10-21T22:46:34.877Z,70.64
2022-10-21T22:49:06.213Z,70.58
2022-10-21T22:51:37.264Z,70.57
2022-10-21T22:54:15.184Z,70.58
2022-10-21T22:56:53.269Z,70.51
2022-10-21T22:59:23.503Z,70.67
2022-10-21T23:01:54.019Z,70.82
2022-10-21T23:04:24.723Z,70.87
2022-10-21T23:06:55.161Z,70.93
2022-10-21T23:09:25.709Z,70.91
2022-10-21T23:11:55.402Z,70.66
2022-10-21T23:14:24.643Z,70.71
2022-10-21T23:16:54.360Z,70.94
2022-10-21T23:19:23.231Z,71.10
2022-10-21T23:21:54.747Z,70.80
2022-10-21T23:24:24.090Z,71.18
2022-10-21T23:26:56.452Z,70.98
2022-10-21T23:29:28.938Z,70.86
2022-10-21T23:31:57.748Z,71.13
2022-10-21T23:34:28.309Z,70.97
2022-10-21T23:36:58.679Z,70.98
2022-10-21T23:39:27.514Z,71.11
2022-10-21T23:41:59.592Z,71.08
2022-10-21T23:44:30.324Z,71.31
2022-10-21T23:47:00.230Z,71.23
2022-10-21T23:49:28.914Z,71.24
2022-10-21T23:52:00.313Z,71.15
2022-10-21T23:54:31.619Z,71.56
2022-10-21T23:57:01.991Z,71.38
2022-10-21T23:59:31.886Z,71.33
